sensor_id;sensor_type;location;lat;lon;timestamp;pressure;altitude;pressure_sealevel;temperature;humidity
39435;BME280;66825;51.880;-0.518;2023-09-19T00:00:26;99735.09;;;21.78;45.20
39435;BME280;66825;51.880;-0.518;2023-09-19T00:02:56;99728.47;;;21.79;44.96
39435;BME280;66825;51.880;-0.518;2023-09-19T00:05:26;99733.16;;;21.78;45.04
39435;BME280;66825;51.880;-0.518;2023-09-19T00:07:54;99717.84;;;21.77;44.99
39435;BME280;66825;51.880;-0.518;2023-09-19T00:10:23;99715.00;;;21.73;45.05
39435;BME280;66825;51.880;-0.518;2023-09-19T00:12:53;99659.91;;;21.38;45.01
39435;BME280;66825;51.880;-0.518;2023-09-19T00:15:23;99667.75;;;21.39;44.97
39435;BME280;66825;51.880;-0.518;2023-09-19T00:17:49;99716.94;;;21.73;44.98
39435;BME280;66825;51.880;-0.518;2023-09-19T00:20:17;99708.06;;;21.64;45.13
39435;BME280;66825;51.880;-0.518;2023-09-19T00:22:43;99716.16;;;21.72;45.16
39435;BME280;66825;51.880;-0.518;2023-09-19T00:25:09;99723.56;;;21.72;45.15
39435;BME280;66825;51.880;-0.518;2023-09-19T00:27:35;99713.22;;;21.65;45.05
39435;BME280;66825;51.880;-0.518;2023-09-19T00:30:07;99745.88;;;21.70;45.16
39435;BME280;66825;51.880;-0.518;2023-09-19T00:32:38;99757.97;;;21.69;45.00
39435;BME280;66825;51.880;-0.518;2023-09-19T00:35:04;99754.44;;;21.69;45.23
39435;BME280;66825;51.880;-0.518;2023-09-19T00:37:29;99766.19;;;21.69;45.20
39435;BME280;66825;51.880;-0.518;2023-09-19T00:39:55;99760.72;;;21.69;45.23
39435;BME280;66825;51.880;-0.518;2023-09-19T00:42:21;99765.41;;;21.69;45.15
39435;BME280;66825;51.880;-0.518;2023-09-19T00:44:47;99770.88;;;21.69;44.95
39435;BME280;66825;51.880;-0.518;2023-09-19T00:47:13;99728.03;;;21.39;45.07
39435;BME280;66825;51.880;-0.518;2023-09-19T00:49:45;99767.34;;;21.68;45.01
39435;BME280;66825;51.880;-0.518;2023-09-19T00:52:16;99770.41;;;21.67;45.07
39435;BME280;66825;51.880;-0.518;2023-09-19T00:54:46;99764.13;;;21.66;45.14
39435;BME280;66825;51.880;-0.518;2023-09-19T00:57:12;99755.91;;;21.66;45.25
39435;BME280;66825;51.880;-0.518;2023-09-19T00:59:37;99746.91;;;21.66;45.22
39435;BME280;66825;51.880;-0.518;2023-09-19T01:02:03;99751.13;;;21.63;45.15
39435;BME280;66825;51.880;-0.518;2023-09-19T01:04:29;99754.31;;;21.65;45.23
39435;BME280;66825;51.880;-0.518;2023-09-19T01:06:56;99756.59;;;21.63;45.18
39435;BME280;66825;51.880;-0.518;2023-09-19T01:09:23;99763.22;;;21.62;45.23
39435;BME280;66825;51.880;-0.518;2023-09-19T01:11:51;99758.53;;;21.63;45.28
39435;BME280;66825;51.880;-0.518;2023-09-19T01:17:21;99752.50;;;21.57;45.18
39435;BME280;66825;51.880;-0.518;2023-09-19T01:20:39;99754.22;;;21.62;45.36
39435;BME280;66825;51.880;-0.518;2023-09-19T01:23:39;99747.91;;;21.61;45.24
39435;BME280;66825;51.880;-0.518;2023-09-19T01:26:23;99752.16;;;21.58;45.25
39435;BME280;66825;51.880;-0.518;2023-09-19T01:31:37;99740.06;;;21.60;45.27
39435;BME280;66825;51.880;-0.518;2023-09-19T01:34:03;99740.41;;;21.58;45.53
39435;BME280;66825;51.880;-0.518;2023-09-19T01:36:35;99745.88;;;21.58;45.49
39435;BME280;66825;51.880;-0.518;2023-09-19T01:39:06;99723.94;;;21.46;45.19
39435;BME280;66825;51.880;-0.518;2023-09-19T01:41:45;99745.06;;;21.57;45.32
39435;BME280;66825;51.880;-0.518;2023-09-19T01:44:19;99700.56;;;21.23;45.41
39435;BME280;66825;51.880;-0.518;2023-09-19T01:46:47;99746.19;;;21.56;45.41
39435;BME280;66825;51.880;-0.518;2023-09-19T01:49:31;99754.41;;;21.56;45.32
39435;BME280;66825;51.880;-0.518;2023-09-19T01:52:10;99746.53;;;21.55;45.43
39435;BME280;66825;51.880;-0.518;2023-09-19T01:54:49;99749.28;;;21.55;45.50
39435;BME280;66825;51.880;-0.518;2023-09-19T01:57:22;99741.41;;;21.53;45.49
39435;BME280;66825;51.880;-0.518;2023-09-19T01:59:53;99736.72;;;21.54;45.50
39435;BME280;66825;51.880;-0.518;2023-09-19T02:02:22;99728.03;;;21.52;45.33
39435;BME280;66825;51.880;-0.518;2023-09-19T02:04:48;99729.31;;;21.54;45.30
39435;BME280;66825;51.880;-0.518;2023-09-19T02:07:16;99724.75;;;21.46;45.42
39435;BME280;66825;51.880;-0.518;2023-09-19T02:09:42;99729.63;;;21.53;45.53
39435;BME280;66825;51.880;-0.518;2023-09-19T02:12:09;99734.69;;;21.51;45.52
39435;BME280;66825;51.880;-0.518;2023-09-19T02:14:34;99744.16;;;21.53;45.43
39435;BME280;66825;51.880;-0.518;2023-09-19T02:17:02;99739.81;;;21.52;45.41
39435;BME280;66825;51.880;-0.518;2023-09-19T02:19:32;99747.22;;;21.52;45.39
39435;BME280;66825;51.880;-0.518;2023-09-19T02:21:59;99732.72;;;21.51;45.47
39435;BME280;66825;51.880;-0.518;2023-09-19T02:24:25;99732.72;;;21.51;45.50
39435;BME280;66825;51.880;-0.518;2023-09-19T02:26:52;99719.00;;;21.51;45.53
39435;BME280;66825;51.880;-0.518;2023-09-19T02:29:17;99720.16;;;21.50;45.53
39435;BME280;66825;51.880;-0.518;2023-09-19T02:31:43;99717.41;;;21.50;45.50
39435;BME280;66825;51.880;-0.518;2023-09-19T02:34:09;99726.78;;;21.49;45.39
39435;BME280;66825;51.880;-0.518;2023-09-19T02:36:35;99720.16;;;21.50;45.38
39435;BME280;66825;51.880;-0.518;2023-09-19T02:39:01;99719.38;;;21.50;45.64
39435;BME280;66825;51.880;-0.518;2023-09-19T02:41:26;99718.56;;;21.49;45.45
39435;BME280;66825;51.880;-0.518;2023-09-19T02:43:54;99718.56;;;21.49;45.44
39435;BME280;66825;51.880;-0.518;2023-09-19T02:46:20;99718.91;;;21.48;45.46
39435;BME280;66825;51.880;-0.518;2023-09-19T02:48:46;99714.22;;;21.48;45.44
39435;BME280;66825;51.880;-0.518;2023-09-19T02:51:12;99709.91;;;21.47;45.40
39435;BME280;66825;51.880;-0.518;2023-09-19T02:53:39;99708.72;;;21.48;45.65
39435;BME280;66825;51.880;-0.518;2023-09-19T02:56:05;99710.69;;;21.48;45.58
39435;BME280;66825;51.880;-0.518;2023-09-19T02:58:30;99647.13;;;21.05;45.56
39435;BME280;66825;51.880;-0.518;2023-09-19T03:01:08;99700.53;;;21.36;45.65
39435;BME280;66825;51.880;-0.518;2023-09-19T03:03:33;99669.50;;;21.07;45.57
39435;BME280;66825;51.880;-0.518;2023-09-19T03:05:59;99732.16;;;21.46;45.70
39435;BME280;66825;51.880;-0.518;2023-09-19T03:08:24;99675.78;;;21.07;45.64
39435;BME280;66825;51.880;-0.518;2023-09-19T03:10:50;99659.69;;;21.06;45.70
39435;BME280;66825;51.880;-0.518;2023-09-19T03:13:16;99710.22;;;21.46;45.68
39435;BME280;66825;51.880;-0.518;2023-09-19T03:15:42;99705.88;;;21.45;45.58
39435;BME280;66825;51.880;-0.518;2023-09-19T03:18:11;99694.13;;;21.44;45.69
39435;BME280;66825;51.880;-0.518;2023-09-19T03:20:38;99687.88;;;21.44;45.42
39435;BME280;66825;51.880;-0.518;2023-09-19T03:23:04;99694.50;;;21.42;45.57
39435;BME280;66825;51.880;-0.518;2023-09-19T03:25:34;99695.63;;;21.41;45.55
39435;BME280;66825;51.880;-0.518;2023-09-19T03:28:00;99613.16;;;20.93;45.62
39435;BME280;66825;51.880;-0.518;2023-09-19T03:30:26;99689.00;;;21.42;45.52
39435;BME280;66825;51.880;-0.518;2023-09-19T03:32:52;99688.19;;;21.42;45.51
39435;BME280;66825;51.880;-0.518;2023-09-19T03:35:17;99689.00;;;21.42;45.49
39435;BME280;66825;51.880;-0.518;2023-09-19T03:37:43;99685.44;;;21.42;45.52
39435;BME280;66825;51.880;-0.518;2023-09-19T03:40:10;99679.97;;;21.42;45.54
39435;BME280;66825;51.880;-0.518;2023-09-19T03:42:39;99650.22;;;21.28;45.52
39435;BME280;66825;51.880;-0.518;2023-09-19T03:45:07;99667.41;;;21.41;45.62
39435;BME280;66825;51.880;-0.518;2023-09-19T03:47:32;99665.03;;;21.39;45.64
39435;BME280;66825;51.880;-0.518;2023-09-19T03:49:58;99668.59;;;21.40;45.69
39435;BME280;66825;51.880;-0.518;2023-09-19T03:52:23;99606.88;;;21.05;45.50
39435;BME280;66825;51.880;-0.518;2023-09-19T03:54:50;99658.75;;;21.39;45.66
39435;BME280;66825;51.880;-0.518;2023-09-19T03:57:15;99649.72;;;21.38;45.57
39435;BME280;66825;51.880;-0.518;2023-09-19T03:59:46;99646.09;;;21.34;45.61
39435;BME280;66825;51.880;-0.518;2023-09-19T04:02:11;99646.88;;;21.35;45.59
39435;BME280;66825;51.880;-0.518;2023-09-19T04:04:48;99654.41;;;21.38;45.68
39435;BME280;66825;51.880;-0.518;2023-09-19T04:07:13;99651.69;;;21.38;45.61
39435;BME280;66825;51.880;-0.518;2023-09-19T04:09:39;99651.69;;;21.38;45.72
39435;BME280;66825;51.880;-0.518;2023-09-19T04:12:05;99642.66;;;21.37;45.55
39435;BME280;66825;51.880;-0.518;2023-09-19T04:14:30;99644.59;;;21.37;45.56
39435;BME280;66825;51.880;-0.518;2023-09-19T04:16:56;99626.91;;;21.34;45.65
39435;BME280;66825;51.880;-0.518;2023-09-19T04:19:21;99630.91;;;21.37;45.60
39435;BME280;66825;51.880;-0.518;2023-09-19T04:21:47;99624.63;;;21.36;45.62
39435;BME280;66825;51.880;-0.518;2023-09-19T04:24:12;99628.16;;;21.37;45.75
39435;BME280;66825;51.880;-0.518;2023-09-19T04:26:38;99622.22;;;21.35;45.74
39435;BME280;66825;51.880;-0.518;2023-09-19T04:29:04;99624.97;;;21.35;45.61
39435;BME280;66825;51.880;-0.518;2023-09-19T04:31:31;99613.56;;;21.33;45.71
39435;BME280;66825;51.880;-0.518;2023-09-19T04:33:57;99642.22;;;21.35;45.84
39435;BME280;66825;51.880;-0.518;2023-09-19T04:36:24;99648.84;;;21.34;45.60
39435;BME280;66825;51.880;-0.518;2023-09-19T04:38:50;99643.00;;;21.36;45.75
39435;BME280;66825;51.880;-0.518;2023-09-19T04:41:15;99635.13;;;21.34;45.78
39435;BME280;66825;51.880;-0.518;2023-09-19T04:43:41;99620.63;;;21.34;45.61
39435;BME280;66825;51.880;-0.518;2023-09-19T04:46:06;99603.75;;;21.32;45.59
39435;BME280;66825;51.880;-0.518;2023-09-19T04:48:32;99613.22;;;21.34;45.67
39435;BME280;66825;51.880;-0.518;2023-09-19T04:51:00;99599.88;;;21.33;45.74
39435;BME280;66825;51.880;-0.518;2023-09-19T04:53:25;99543.69;;;20.98;45.87
39435;BME280;66825;51.880;-0.518;2023-09-19T04:55:51;99590.63;;;21.25;45.74
39435;BME280;66825;51.880;-0.518;2023-09-19T04:58:21;99615.50;;;21.32;45.92
39435;BME280;66825;51.880;-0.518;2023-09-19T05:00:47;99599.06;;;21.32;45.63
39435;BME280;66825;51.880;-0.518;2023-09-19T05:03:12;99603.75;;;21.32;45.88
39435;BME280;66825;51.880;-0.518;2023-09-19T05:05:38;99582.63;;;21.32;45.84
39435;BME280;66825;51.880;-0.518;2023-09-19T05:08:04;99576.56;;;21.26;45.59
39435;BME280;66825;51.880;-0.518;2023-09-19T05:10:32;99591.97;;;21.31;45.99
39435;BME280;66825;51.880;-0.518;2023-09-19T05:12:57;99595.53;;;21.32;45.90
39435;BME280;66825;51.880;-0.518;2023-09-19T05:15:23;99597.81;;;21.30;45.90
39435;BME280;66825;51.880;-0.518;2023-09-19T05:17:49;99592.78;;;21.32;45.88
39435;BME280;66825;51.880;-0.518;2023-09-19T05:20:20;99580.03;;;21.23;45.89
39435;BME280;66825;51.880;-0.518;2023-09-19T05:23:12;99599.41;;;21.31;45.72
39435;BME280;66825;51.880;-0.518;2023-09-19T05:25:39;99590.38;;;21.30;45.63
39435;BME280;66825;51.880;-0.518;2023-09-19T05:28:06;99580.25;;;21.31;45.98
39435;BME280;66825;51.880;-0.518;2023-09-19T05:30:33;99579.41;;;21.30;45.88
39435;BME280;66825;51.880;-0.518;2023-09-19T05:32:59;99595.84;;;21.30;45.83
39435;BME280;66825;51.880;-0.518;2023-09-19T05:35:24;99581.38;;;21.30;45.85
39435;BME280;66825;51.880;-0.518;2023-09-19T05:37:52;99571.56;;;21.29;45.82
39435;BME280;66825;51.880;-0.518;2023-09-19T05:40:18;99571.19;;;21.30;45.77
39435;BME280;66825;51.880;-0.518;2023-09-19T05:42:44;99559.94;;;21.19;45.95
39435;BME280;66825;51.880;-0.518;2023-09-19T05:45:10;99557.88;;;21.29;45.92
39435;BME280;66825;51.880;-0.518;2023-09-19T05:47:41;99560.59;;;21.29;46.08
39435;BME280;66825;51.880;-0.518;2023-09-19T05:50:11;99547.25;;;21.27;45.85
39435;BME280;66825;51.880;-0.518;2023-09-19T05:52:38;99552.75;;;21.27;45.76
39435;BME280;66825;51.880;-0.518;2023-09-19T05:55:07;99541.78;;;21.27;45.93
39435;BME280;66825;51.880;-0.518;2023-09-19T05:57:33;99527.63;;;21.25;46.13
39435;BME280;66825;51.880;-0.518;2023-09-19T05:59:59;99525.34;;;21.27;45.96
39435;BME280;66825;51.880;-0.518;2023-09-19T06:02:25;99521.78;;;21.26;46.00
39435;BME280;66825;51.880;-0.518;2023-09-19T06:04:55;99519.06;;;21.26;45.84
39435;BME280;66825;51.880;-0.518;2023-09-19T06:07:24;99510.84;;;21.26;45.70
39435;BME280;66825;51.880;-0.518;2023-09-19T06:09:52;99500.38;;;21.16;45.98
39435;BME280;66825;51.880;-0.518;2023-09-19T06:12:20;99514.38;;;21.27;46.00
39435;BME280;66825;51.880;-0.518;2023-09-19T06:14:46;99503.78;;;21.25;46.01
39435;BME280;66825;51.880;-0.518;2023-09-19T06:17:11;99487.84;;;21.15;45.89
39435;BME280;66825;51.880;-0.518;2023-09-19T06:19:37;99505.72;;;21.25;45.71
39435;BME280;66825;51.880;-0.518;2023-09-19T06:22:02;99513.94;;;21.25;45.93
39435;BME280;66825;51.880;-0.518;2023-09-19T06:24:28;99517.47;;;21.25;45.99
39435;BME280;66825;51.880;-0.518;2023-09-19T06:26:54;99509.25;;;21.25;45.95
39435;BME280;66825;51.880;-0.518;2023-09-19T06:29:20;99511.19;;;21.25;45.95
39435;BME280;66825;51.880;-0.518;2023-09-19T06:31:46;99504.94;;;21.24;45.95
39435;BME280;66825;51.880;-0.518;2023-09-19T06:34:12;99504.94;;;21.24;45.92
39435;BME280;66825;51.880;-0.518;2023-09-19T06:36:40;99507.66;;;21.24;45.86
39435;BME280;66825;51.880;-0.518;2023-09-19T06:39:06;99503.78;;;21.25;45.90
39435;BME280;66825;51.880;-0.518;2023-09-19T06:41:37;99482.19;;;21.24;45.89
39435;BME280;66825;51.880;-0.518;2023-09-19T06:44:04;99473.19;;;21.23;45.97
39435;BME280;66825;51.880;-0.518;2023-09-19T06:46:30;99478.69;;;21.23;45.75
39435;BME280;66825;51.880;-0.518;2023-09-19T06:49:00;99471.25;;;21.24;45.91
39435;BME280;66825;51.880;-0.518;2023-09-19T06:51:31;99468.88;;;21.22;46.01
39435;BME280;66825;51.880;-0.518;2023-09-19T06:53:57;99459.03;;;21.21;45.94
39435;BME280;66825;51.880;-0.518;2023-09-19T06:56:23;99466.13;;;21.22;45.97
39435;BME280;66825;51.880;-0.518;2023-09-19T06:58:50;99466.13;;;21.22;45.86
39435;BME280;66825;51.880;-0.518;2023-09-19T07:01:16;99463.38;;;21.22;46.02
39435;BME280;66825;51.880;-0.518;2023-09-19T07:03:43;99450.84;;;21.21;46.22
39435;BME280;66825;51.880;-0.518;2023-09-19T07:06:11;99436.78;;;21.23;46.06
39435;BME280;66825;51.880;-0.518;2023-09-19T07:08:36;99428.03;;;21.17;45.96
39435;BME280;66825;51.880;-0.518;2023-09-19T07:11:03;99426.19;;;21.21;46.13
39435;BME280;66825;51.880;-0.518;2023-09-19T07:13:31;99423.53;;;21.25;45.99
39435;BME280;66825;51.880;-0.518;2023-09-19T07:15:58;99427.41;;;21.24;46.00
39435;BME280;66825;51.880;-0.518;2023-09-19T07:18:24;99431.41;;;21.26;45.89
39435;BME280;66825;51.880;-0.518;2023-09-19T07:20:50;99440.06;;;21.29;45.98
39435;BME280;66825;51.880;-0.518;2023-09-19T07:23:17;99387.16;;;20.96;45.87
39435;BME280;66825;51.880;-0.518;2023-09-19T07:25:43;99447.50;;;21.28;46.14
39435;BME280;66825;51.880;-0.518;2023-09-19T07:28:08;99432.66;;;21.29;45.95
39435;BME280;66825;51.880;-0.518;2023-09-19T07:30:36;99419.75;;;21.30;45.96
39435;BME280;66825;51.880;-0.518;2023-09-19T07:33:07;99414.28;;;21.30;46.25
39435;BME280;66825;51.880;-0.518;2023-09-19T07:35:32;99385.91;;;20.93;46.31
39435;BME280;66825;51.880;-0.518;2023-09-19T07:37:59;99429.72;;;21.22;46.21
39435;BME280;66825;51.880;-0.518;2023-09-19T07:40:27;99433.09;;;21.31;46.38
39435;BME280;66825;51.880;-0.518;2023-09-19T07:42:57;99422.56;;;21.17;46.47
39435;BME280;66825;51.880;-0.518;2023-09-19T07:45:27;99426.81;;;21.31;46.37
39435;BME280;66825;51.880;-0.518;2023-09-19T07:47:53;99426.47;;;21.32;46.59
39435;BME280;66825;51.880;-0.518;2023-09-19T07:50:19;99412.69;;;21.29;46.60
39435;BME280;66825;51.880;-0.518;2023-09-19T07:52:46;99423.72;;;21.32;46.48
39435;BME280;66825;51.880;-0.518;2023-09-19T07:55:11;99409.47;;;21.26;46.28
39435;BME280;66825;51.880;-0.518;2023-09-19T07:57:41;99434.69;;;21.32;46.63
39435;BME280;66825;51.880;-0.518;2023-09-19T08:00:08;99416.13;;;21.25;46.67
39435;BME280;66825;51.880;-0.518;2023-09-19T08:02:37;99431.59;;;21.34;46.68
39435;BME280;66825;51.880;-0.518;2023-09-19T08:05:09;99432.75;;;21.33;46.79
39435;BME280;66825;51.880;-0.518;2023-09-19T08:07:39;99442.53;;;21.34;46.74
39435;BME280;66825;51.880;-0.518;2023-09-19T08:10:05;99429.66;;;21.34;47.12
39435;BME280;66825;51.880;-0.518;2023-09-19T08:12:39;99432.41;;;21.34;47.19
39435;BME280;66825;51.880;-0.518;2023-09-19T08:15:15;99415.59;;;21.36;47.11
39435;BME280;66825;51.880;-0.518;2023-09-19T08:17:40;99431.69;;;21.37;47.10
39435;BME280;66825;51.880;-0.518;2023-09-19T08:20:07;99428.94;;;21.37;47.12
39435;BME280;66825;51.880;-0.518;2023-09-19T08:22:32;99420.72;;;21.37;46.96
39435;BME280;66825;51.880;-0.518;2023-09-19T08:24:58;99418.81;;;21.38;46.94
39435;BME280;66825;51.880;-0.518;2023-09-19T08:27:24;99410.59;;;21.38;47.38
39435;BME280;66825;51.880;-0.518;2023-09-19T08:29:52;99427.47;;;21.40;47.18
39435;BME280;66825;51.880;-0.518;2023-09-19T08:32:18;99414.00;;;21.35;47.15
39435;BME280;66825;51.880;-0.518;2023-09-19T08:34:49;99411.03;;;21.40;47.25
39435;BME280;66825;51.880;-0.518;2023-09-19T08:37:14;99415.00;;;21.42;47.18
39435;BME280;66825;51.880;-0.518;2023-09-19T08:39:42;99413.88;;;21.44;47.31
39435;BME280;66825;51.880;-0.518;2023-09-19T08:42:08;99340.97;;;20.94;47.37
39435;BME280;66825;51.880;-0.518;2023-09-19T08:44:36;99402.19;;;21.47;47.48
39435;BME280;66825;51.880;-0.518;2023-09-19T08:47:10;99395.03;;;21.42;47.68
39435;BME280;66825;51.880;-0.518;2023-09-19T08:52:42;99406.97;;;21.50;47.95
39435;BME280;66825;51.880;-0.518;2023-09-19T08:55:12;99403.88;;;21.51;47.41
39435;BME280;66825;51.880;-0.518;2023-09-19T08:57:38;99406.25;;;21.53;47.69
39435;BME280;66825;51.880;-0.518;2023-09-19T09:00:08;99414.47;;;21.53;47.67
39435;BME280;66825;51.880;-0.518;2023-09-19T09:02:40;99418.81;;;21.54;47.88
39435;BME280;66825;51.880;-0.518;2023-09-19T09:05:11;99404.75;;;21.55;47.88
39435;BME280;66825;51.880;-0.518;2023-09-19T09:07:38;99411.03;;;21.56;48.48
39435;BME280;66825;51.880;-0.518;2023-09-19T09:10:04;99396.09;;;21.53;48.23
39435;BME280;66825;51.880;-0.518;2023-09-19T09:12:30;99409.56;;;21.58;47.92
39435;BME280;66825;51.880;-0.518;2023-09-19T09:14:56;99392.75;;;21.60;47.96
39435;BME280;66825;51.880;-0.518;2023-09-19T09:17:23;99390.03;;;21.60;48.08
39435;BME280;66825;51.880;-0.518;2023-09-19T09:19:52;99376.69;;;21.58;48.49
39435;BME280;66825;51.880;-0.518;2023-09-19T09:22:18;99383.13;;;21.66;48.48
39435;BME280;66825;51.880;-0.518;2023-09-19T09:24:58;99380.13;;;21.71;49.09
39435;BME280;66825;51.880;-0.518;2023-09-19T09:27:26;99385.72;;;21.75;48.43
39435;BME280;66825;51.880;-0.518;2023-09-19T09:29:53;99384.13;;;21.74;48.67
39435;BME280;66825;51.880;-0.518;2023-09-19T09:34:50;99396.13;;;21.85;48.49
39435;BME280;66825;51.880;-0.518;2023-09-19T09:37:17;99400.72;;;21.81;48.31
39435;BME280;66825;51.880;-0.518;2023-09-19T09:39:58;99391.09;;;21.87;48.82
39435;BME280;66825;51.880;-0.518;2023-09-19T09:42:37;99391.53;;;21.89;48.64
39435;BME280;66825;51.880;-0.518;2023-09-19T09:45:16;99391.63;;;21.93;48.51
39435;BME280;66825;51.880;-0.518;2023-09-19T09:47:47;99387.38;;;21.96;48.94
39435;BME280;66825;51.880;-0.518;2023-09-19T09:50:31;99393.31;;;21.98;48.49
39435;BME280;66825;51.880;-0.518;2023-09-19T09:53:29;99321.41;;;21.56;48.06
39435;BME280;66825;51.880;-0.518;2023-09-19T09:56:08;99391.78;;;22.00;47.90
39435;BME280;66825;51.880;-0.518;2023-09-19T10:01:13;99379.31;;;22.03;48.27
39435;BME280;66825;51.880;-0.518;2023-09-19T10:03:42;99368.88;;;21.93;48.55
39435;BME280;66825;51.880;-0.518;2023-09-19T10:06:15;99390.00;;;22.08;48.35
39435;BME280;66825;51.880;-0.518;2023-09-19T10:09:08;99398.31;;;22.12;48.28
39435;BME280;66825;51.880;-0.518;2023-09-19T10:11:45;99388.16;;;22.12;47.83
39435;BME280;66825;51.880;-0.518;2023-09-19T10:14:17;99380.72;;;22.13;47.81
39435;BME280;66825;51.880;-0.518;2023-09-19T10:16:47;99388.16;;;22.12;47.89
39435;BME280;66825;51.880;-0.518;2023-09-19T10:22:16;99374.84;;;22.14;48.32
39435;BME280;66825;51.880;-0.518;2023-09-19T10:24:47;99390.63;;;22.17;48.18
39435;BME280;66825;51.880;-0.518;2023-09-19T10:27:17;99366.00;;;22.21;47.85
39435;BME280;66825;51.880;-0.518;2023-09-19T10:29:45;99341.16;;;22.14;47.95
39435;BME280;66825;51.880;-0.518;2023-09-19T10:32:15;99361.03;;;22.27;47.65
39435;BME280;66825;51.880;-0.518;2023-09-19T10:34:46;99354.41;;;22.28;47.69
39435;BME280;66825;51.880;-0.518;2023-09-19T10:37:13;99360.31;;;22.30;47.63
39435;BME280;66825;51.880;-0.518;2023-09-19T10:39:40;99357.56;;;22.30;47.68
39435;BME280;66825;51.880;-0.518;2023-09-19T10:42:07;99340.59;;;22.24;47.76
39435;BME280;66825;51.880;-0.518;2023-09-19T10:44:38;99355.34;;;22.35;47.85
39435;BME280;66825;51.880;-0.518;2023-09-19T10:47:09;99360.47;;;22.37;47.61
39435;BME280;66825;51.880;-0.518;2023-09-19T10:49:43;99346.75;;;22.37;47.79
39435;BME280;66825;51.880;-0.518;2023-09-19T10:52:13;99354.28;;;22.40;47.72
39435;BME280;66825;51.880;-0.518;2023-09-19T10:54:47;99348.34;;;22.38;47.72
39435;BME280;66825;51.880;-0.518;2023-09-19T10:57:23;99357.13;;;22.44;47.76
39435;BME280;66825;51.880;-0.518;2023-09-19T11:00:03;99334.09;;;22.32;47.65
39435;BME280;66825;51.880;-0.518;2023-09-19T11:05:37;99357.56;;;22.46;48.12
39435;BME280;66825;51.880;-0.518;2023-09-19T11:08:07;99298.56;;;22.20;47.92
39435;BME280;66825;51.880;-0.518;2023-09-19T11:13:25;99371.22;;;22.62;47.95
39435;BME280;66825;51.880;-0.518;2023-09-19T11:24:28;99364.88;;;22.77;47.87
39435;BME280;66825;51.880;-0.518;2023-09-19T11:27:13;99368.84;;;22.80;47.86
39435;BME280;66825;51.880;-0.518;2023-09-19T11:29:40;99362.13;;;22.77;48.13
39435;BME280;66825;51.880;-0.518;2023-09-19T11:32:06;99356.47;;;22.70;48.17
39435;BME280;66825;51.880;-0.518;2023-09-19T11:34:44;99368.97;;;22.87;48.05
39435;BME280;66825;51.880;-0.518;2023-09-19T11:39:39;99350.06;;;22.82;47.56
39435;BME280;66825;51.880;-0.518;2023-09-19T11:46:14;99356.09;;;22.91;47.40
39435;BME280;66825;51.880;-0.518;2023-09-19T11:48:23;99354.94;;;22.92;47.42
39435;BME280;66825;51.880;-0.518;2023-09-19T11:50:52;99347.06;;;22.91;47.50
39435;BME280;66825;51.880;-0.518;2023-09-19T11:53:18;99307.22;;;22.58;47.49
39435;BME280;66825;51.880;-0.518;2023-09-19T11:55:45;99297.81;;;22.59;47.55
39435;BME280;66825;51.880;-0.518;2023-09-19T11:58:12;99360.38;;;22.89;48.25
39435;BME280;66825;51.880;-0.518;2023-09-19T12:00:40;99370.19;;;22.90;48.31
39435;BME280;66825;51.880;-0.518;2023-09-19T12:03:10;99353.00;;;22.93;48.63
39435;BME280;66825;51.880;-0.518;2023-09-19T12:05:37;99342.38;;;22.91;48.58
39435;BME280;66825;51.880;-0.518;2023-09-19T12:08:04;99364.13;;;23.00;48.47
39435;BME280;66825;51.880;-0.518;2023-09-19T12:10:32;99360.63;;;23.03;48.64
39435;BME280;66825;51.880;-0.518;2023-09-19T12:12:58;99338.06;;;22.90;48.48
39435;BME280;66825;51.880;-0.518;2023-09-19T12:15:28;99364.31;;;23.11;48.30
39435;BME280;66825;51.880;-0.518;2023-09-19T12:18:00;99342.56;;;23.02;48.22
39435;BME280;66825;51.880;-0.518;2023-09-19T12:20:41;99353.41;;;23.14;48.24
39435;BME280;66825;51.880;-0.518;2023-09-19T12:23:13;99349.50;;;23.15;48.29
39435;BME280;66825;51.880;-0.518;2023-09-19T12:25:43;99346.69;;;23.12;48.15
39435;BME280;66825;51.880;-0.518;2023-09-19T12:28:12;99351.09;;;23.16;47.87
39435;BME280;66825;51.880;-0.518;2023-09-19T12:30:37;99350.66;;;23.14;48.15
39435;BME280;66825;51.880;-0.518;2023-09-19T12:33:16;99353.41;;;23.14;48.24
39435;BME280;66825;51.880;-0.518;2023-09-19T12:35:41;99351.09;;;23.16;48.42
39435;BME280;66825;51.880;-0.518;2023-09-19T12:38:10;99353.84;;;23.16;48.21
39435;BME280;66825;51.880;-0.518;2023-09-19T12:40:38;99359.34;;;23.16;48.38
39435;BME280;66825;51.880;-0.518;2023-09-19T12:43:08;99361.75;;;23.18;48.53
39435;BME280;66825;51.880;-0.518;2023-09-19T12:45:35;99351.97;;;23.21;48.77
39435;BME280;66825;51.880;-0.518;2023-09-19T12:48:22;99359.13;;;23.25;48.96
39435;BME280;66825;51.880;-0.518;2023-09-19T12:51:07;99355.28;;;23.30;48.41
39435;BME280;66825;51.880;-0.518;2023-09-19T12:53:37;99356.06;;;23.30;48.63
39435;BME280;66825;51.880;-0.518;2023-09-19T12:56:08;99362.38;;;23.31;48.75
39435;BME280;66825;51.880;-0.518;2023-09-19T12:58:54;99365.53;;;23.33;48.79
39435;BME280;66825;51.880;-0.518;2023-09-19T13:01:21;99356.50;;;23.33;48.64
39435;BME280;66825;51.880;-0.518;2023-09-19T13:04:16;99356.13;;;23.34;48.65
39435;BME280;66825;51.880;-0.518;2023-09-19T13:06:49;99358.88;;;23.34;48.54
39435;BME280;66825;51.880;-0.518;2023-09-19T13:09:22;99361.63;;;23.34;48.78
39435;BME280;66825;51.880;-0.518;2023-09-19T13:11:50;99363.22;;;23.35;48.75
39435;BME280;66825;51.880;-0.518;2023-09-19T13:14:23;99360.47;;;23.35;48.56
39435;BME280;66825;51.880;-0.518;2023-09-19T13:19:42;99364.00;;;23.36;48.96
39435;BME280;66825;51.880;-0.518;2023-09-19T13:25:15;99371.91;;;23.37;48.97
39435;BME280;66825;51.880;-0.518;2023-09-19T13:27:54;99381.34;;;23.40;49.00
39435;BME280;66825;51.880;-0.518;2023-09-19T13:30:26;99369.56;;;23.39;49.02
39435;BME280;66825;51.880;-0.518;2023-09-19T13:33:04;99310.34;;;22.99;49.13
39435;BME280;66825;51.880;-0.518;2023-09-19T13:35:31;99372.31;;;23.39;48.98
39435;BME280;66825;51.880;-0.518;2023-09-19T13:37:56;99371.16;;;23.40;49.03
39435;BME280;66825;51.880;-0.518;2023-09-19T13:40:21;99371.59;;;23.42;49.36
39435;BME280;66825;51.880;-0.518;2023-09-19T13:42:47;99373.19;;;23.43;49.26